METAR Formatted Surface Weather Observation
Issued by NWS

Home | Current Version | Previous Version | Text Only | Print | Product List | Glossary On
Versions: 1 2 3 4 5 6
000
SAUS46 KSEW 160257
MTRSMP
METAR KSMP 160256Z AUTO VRB04KT 10SM CLR 18/M01 A3000 RMK AO2 SLP141
T01781006 53000 $



USA.gov is the U.S. government's official web portal to all federal, state and local government web resources and services.